Time,TemperatureF,DewpointF,PressureIn,WindDirection,WindDirectionDegrees,WindSpeedMPH,WindSpeedGustMPH,Humidity,HourlyPrecipIn,Conditions,Clouds,dailyrainin,SoftwareType,DateUTC
2013-03-17 00:00:00,28.2,22.5,30.08,WSW,245,0.0,0.0,79,0.00,,,0.01,Wunderground v.1.15,2013-03-17 04:00:00,
2013-03-17 00:05:00,28.3,22.6,30.08,SW,225,0.0,1.0,79,0.00,,,0.00,Wunderground v.1.15,2013-03-17 04:05:00,
2013-03-17 00:10:00,28.3,22.6,30.08,WSW,248,0.0,0.0,79,0.00,,,0.00,Wunderground v.1.15,2013-03-17 04:10:00,
2013-03-17 00:15:00,28.2,23.1,30.08,West,259,0.0,1.0,81,0.00,,,0.00,Wunderground v.1.15,2013-03-17 04:15:00,
2013-03-17 00:25:00,28.5,23.1,30.08,SW,232,1.0,1.0,80,0.00,,,0.00,Wunderground v.1.15,2013-03-17 04:25:00,
2013-03-17 00:30:00,28.6,23.2,30.09,SW,221,1.0,1.0,80,0.00,,,0.00,Wunderground v.1.15,2013-03-17 04:30:00,
2013-03-17 00:35:00,28.8,23.7,30.08,SW,236,1.0,1.0,81,0.00,,,0.00,Wunderground v.1.15,2013-03-17 04:35:00,
2013-03-17 00:40:00,28.8,23.7,30.08,WSW,240,1.0,3.0,81,0.00,,,0.00,Wunderground v.1.15,2013-03-17 04:40:00,
2013-03-17 00:45:00,28.8,23.7,30.08,WSW,249,1.0,3.0,81,0.00,,,0.00,Wunderground v.1.15,2013-03-17 04:45:00,
2013-03-17 00:50:00,28.8,24.0,30.09,WSW,245,1.0,1.0,82,0.00,,,0.00,Wunderground v.1.15,2013-03-17 04:50:00,
2013-03-17 01:00:00,28.9,24.1,30.08,WSW,240,1.0,1.0,82,0.00,,,0.00,Wunderground v.1.15,2013-03-17 05:00:00,
2013-03-17 01:05:00,28.9,24.1,30.08,West,260,1.0,1.0,82,0.00,,,0.00,Wunderground v.1.15,2013-03-17 05:05:00,
2013-03-17 01:10:00,28.9,24.1,30.08,SSW,207,1.0,1.0,82,0.00,,,0.00,Wunderground v.1.15,2013-03-17 05:10:00,
2013-03-17 01:15:00,28.9,24.4,30.08,SSW,204,0.0,1.0,83,0.00,,,0.00,Wunderground v.1.15,2013-03-17 05:15:00,
2013-03-17 01:20:00,28.9,24.1,30.08,SW,222,1.0,1.0,82,0.00,,,0.00,Wunderground v.1.15,2013-03-17 05:20:00,
2013-03-17 01:30:00,28.9,24.1,30.08,WSW,254,1.0,1.0,82,0.00,,,0.00,Wunderground v.1.15,2013-03-17 05:30:00,
2013-03-17 01:35:00,28.9,24.4,30.09,West,278,1.0,1.0,83,0.00,,,0.00,Wunderground v.1.15,2013-03-17 05:35:00,
2013-03-17 01:40:00,28.8,24.0,30.09,SSW,197,0.0,1.0,82,0.00,,,0.00,Wunderground v.1.15,2013-03-17 05:40:00,
2013-03-17 01:45:00,28.9,23.8,30.09,West,280,1.0,2.0,81,0.00,,,0.00,Wunderground v.1.15,2013-03-17 05:45:00,
2013-03-17 01:50:00,29.0,23.9,30.09,WSW,246,1.0,1.0,81,0.00,,,0.00,Wunderground v.1.15,2013-03-17 05:50:00,
2013-03-17 01:55:00,29.0,24.2,30.09,WSW,252,1.0,1.0,82,0.00,,,0.00,Wunderground v.1.15,2013-03-17 05:55:00,
2013-03-17 02:05:00,29.1,24.0,30.10,West,281,0.0,1.0,81,0.00,,,0.00,Wunderground v.1.15,2013-03-17 06:05:00,
2013-03-17 02:10:00,29.2,24.1,30.10,WNW,288,1.0,1.0,81,0.00,,,0.00,Wunderground v.1.15,2013-03-17 06:10:00,
2013-03-17 02:20:00,29.3,23.9,30.11,WNW,287,2.0,3.0,80,0.00,,,0.00,Wunderground v.1.15,2013-03-17 06:20:00,
2013-03-17 02:30:00,29.3,24.2,30.11,West,278,2.0,2.0,81,0.00,,,0.00,Wunderground v.1.15,2013-03-17 06:30:00,
2013-03-17 02:35:00,29.2,23.8,30.11,WNW,283,3.0,3.0,80,0.00,,,0.00,Wunderground v.1.15,2013-03-17 06:35:00,
2013-03-17 02:40:00,29.0,23.6,30.11,West,262,3.0,4.0,80,0.00,,,0.00,Wunderground v.1.15,2013-03-17 06:40:00,
2013-03-17 02:50:00,28.7,22.4,30.12,WNW,289,4.0,7.0,77,0.00,,,0.00,Wunderground v.1.15,2013-03-17 06:50:00,
2013-03-17 02:55:00,28.6,22.0,30.12,West,277,4.0,7.0,76,0.00,,,0.00,Wunderground v.1.15,2013-03-17 06:55:00,
2013-03-17 03:00:00,28.4,21.8,30.13,WNW,297,4.0,7.0,76,0.00,,,0.00,Wunderground v.1.15,2013-03-17 07:00:00,
2013-03-17 03:05:00,28.1,21.5,30.13,WNW,288,3.0,7.0,76,0.00,,,0.00,Wunderground v.1.15,2013-03-17 07:05:00,
2013-03-17 03:10:00,27.8,21.2,30.13,NNW,339,3.0,7.0,76,0.00,,,0.00,Wunderground v.1.15,2013-03-17 07:10:00,
2013-03-17 03:20:00,27.3,20.4,30.13,WNW,285,3.0,3.0,75,0.00,,,0.00,Wunderground v.1.15,2013-03-17 07:20:00,
2013-03-17 03:25:00,27.1,20.5,30.13,NW,312,3.0,3.0,76,0.00,,,0.00,Wunderground v.1.15,2013-03-17 07:25:00,
2013-03-17 03:30:00,26.9,20.3,30.13,WSW,252,3.0,4.0,76,0.00,,,0.00,Wunderground v.1.15,2013-03-17 07:30:00,
2013-03-17 03:35:00,26.6,19.7,30.13,West,281,3.0,4.0,75,0.00,,,0.00,Wunderground v.1.15,2013-03-17 07:35:00,
2013-03-17 03:40:00,26.3,19.1,30.14,NNW,339,4.0,5.0,74,0.00,,,0.00,Wunderground v.1.15,2013-03-17 07:40:00,
2013-03-17 03:50:00,25.7,18.6,30.14,WSW,254,3.0,7.0,74,0.00,,,0.00,Wunderground v.1.15,2013-03-17 07:50:00,
2013-03-17 03:55:00,25.4,18.6,30.14,WNW,285,3.0,7.0,75,0.00,,,0.00,Wunderground v.1.15,2013-03-17 07:55:00,
2013-03-17 04:00:00,25.2,18.4,30.14,West,280,4.0,4.0,75,0.00,,,0.00,Wunderground v.1.15,2013-03-17 08:00:00,
2013-03-17 04:05:00,25.0,18.2,30.14,NW,305,3.0,4.0,75,0.00,,,0.00,Wunderground v.1.15,2013-03-17 08:05:00,
2013-03-17 04:10:00,24.7,18.2,30.14,WNW,301,2.0,2.0,76,0.00,,,0.00,Wunderground v.1.15,2013-03-17 08:10:00,
2013-03-17 04:20:00,24.6,17.8,30.14,WNW,284,3.0,3.0,75,0.00,,,0.00,Wunderground v.1.15,2013-03-17 08:20:00,
2013-03-17 04:25:00,24.4,17.9,30.14,NNW,333,3.0,3.0,76,0.00,,,0.00,Wunderground v.1.15,2013-03-17 08:25:00,
2013-03-17 04:30:00,24.3,17.8,30.15,West,275,2.0,3.0,76,0.00,,,0.00,Wunderground v.1.15,2013-03-17 08:30:00,
2013-03-17 04:35:00,24.2,17.7,30.15,WNW,300,2.0,3.0,76,0.00,,,0.00,Wunderground v.1.15,2013-03-17 08:35:00,
2013-03-17 04:45:00,23.9,17.7,30.14,NNW,347,2.0,2.0,77,0.00,,,0.00,Wunderground v.1.15,2013-03-17 08:45:00,
2013-03-17 04:50:00,23.9,17.7,30.15,NNW,328,2.0,2.0,77,0.00,,,0.00,Wunderground v.1.15,2013-03-17 08:50:00,
2013-03-17 04:55:00,23.7,17.5,30.15,WNW,288,2.0,2.0,77,0.00,,,0.00,Wunderground v.1.15,2013-03-17 08:55:00,
2013-03-17 05:00:00,23.6,17.4,30.15,NW,326,1.0,4.0,77,0.00,,,0.00,Wunderground v.1.15,2013-03-17 09:00:00,
2013-03-17 05:05:00,23.5,17.3,30.15,WNW,287,1.0,4.0,77,0.00,,,0.00,Wunderground v.1.15,2013-03-17 09:05:00,
2013-03-17 05:15:00,23.2,17.4,30.15,North,349,1.0,3.0,78,0.00,,,0.00,Wunderground v.1.15,2013-03-17 09:15:00,
2013-03-17 05:20:00,23.2,17.4,30.15,NNW,328,2.0,2.0,78,0.00,,,0.00,Wunderground v.1.15,2013-03-17 09:20:00,
2013-03-17 05:25:00,23.0,17.5,30.15,North,352,1.0,2.0,79,0.00,,,0.00,Wunderground v.1.15,2013-03-17 09:25:00,
2013-03-17 05:30:00,22.8,17.3,30.14,NNW,339,1.0,1.0,79,0.00,,,0.00,Wunderground v.1.15,2013-03-17 09:30:00,
2013-03-17 05:35:00,22.7,17.2,30.15,NW,321,1.0,2.0,79,0.00,,,0.00,Wunderground v.1.15,2013-03-17 09:35:00,
2013-03-17 05:45:00,22.5,17.3,30.15,NW,307,1.0,1.0,80,0.00,,,0.00,Wunderground v.1.15,2013-03-17 09:45:00,
2013-03-17 05:50:00,22.3,17.1,30.15,NW,308,0.0,0.0,80,0.00,,,0.00,Wunderground v.1.15,2013-03-17 09:50:00,
2013-03-17 05:55:00,22.1,16.9,30.16,NW,325,0.0,0.0,80,0.00,,,0.00,Wunderground v.1.15,2013-03-17 09:55:00,
2013-03-17 06:00:00,21.9,16.7,30.16,NW,325,0.0,0.0,80,0.00,,,0.00,Wunderground v.1.15,2013-03-17 10:00:00,
2013-03-17 06:05:00,21.5,16.6,30.17,NW,325,0.0,0.0,81,0.00,,,0.00,Wunderground v.1.15,2013-03-17 10:05:00,
2013-03-17 06:15:00,21.0,16.4,30.17,NW,325,0.0,0.0,82,0.00,,,0.00,Wunderground v.1.15,2013-03-17 10:15:00,
2013-03-17 06:20:00,20.9,16.3,30.17,NW,324,0.0,0.0,82,0.00,,,0.00,Wunderground v.1.15,2013-03-17 10:20:00,
2013-03-17 06:25:00,20.9,16.3,30.18,NW,324,0.0,0.0,82,0.00,,,0.00,Wunderground v.1.15,2013-03-17 10:25:00,
2013-03-17 06:30:00,20.6,16.3,30.18,NW,325,0.0,0.0,83,0.00,,,0.00,Wunderground v.1.15,2013-03-17 10:30:00,
2013-03-17 06:35:00,20.5,16.2,30.18,NW,325,0.0,0.0,83,0.00,,,0.00,Wunderground v.1.15,2013-03-17 10:35:00,
2013-03-17 06:45:00,19.9,15.8,30.18,NW,325,0.0,0.0,84,0.00,,,0.00,Wunderground v.1.15,2013-03-17 10:45:00,
2013-03-17 06:50:00,19.6,15.8,30.19,NW,324,0.0,0.0,85,0.00,,,0.00,Wunderground v.1.15,2013-03-17 10:50:00,
2013-03-17 06:55:00,19.2,15.4,30.19,NW,325,0.0,0.0,85,0.00,,,0.00,Wunderground v.1.15,2013-03-17 10:55:00,
2013-03-17 07:00:00,19.0,15.5,30.19,NW,325,0.0,0.0,86,0.00,,,0.00,Wunderground v.1.15,2013-03-17 11:00:00,
2013-03-17 07:05:00,18.8,15.3,30.20,NW,325,0.0,0.0,86,0.00,,,0.00,Wunderground v.1.15,2013-03-17 11:05:00,
2013-03-17 07:15:00,18.4,15.2,30.20,NW,324,0.0,0.0,87,0.00,,,0.00,Wunderground v.1.15,2013-03-17 11:15:00,
2013-03-17 07:20:00,18.6,15.6,30.20,WNW,293,0.0,0.0,88,0.00,,,0.00,Wunderground v.1.15,2013-03-17 11:20:00,
2013-03-17 07:25:00,18.8,15.8,30.20,NW,321,0.0,0.0,88,0.00,,,0.00,Wunderground v.1.15,2013-03-17 11:25:00,
2013-03-17 07:30:00,19.2,16.0,30.21,NW,316,0.0,2.0,87,0.00,,,0.00,Wunderground v.1.15,2013-03-17 11:30:00,
2013-03-17 07:35:00,19.8,16.3,30.21,NW,309,1.0,2.0,86,0.00,,,0.00,Wunderground v.1.15,2013-03-17 11:35:00,
2013-03-17 07:40:00,20.3,16.5,30.21,NNW,334,2.0,2.0,85,0.00,,,0.00,Wunderground v.1.15,2013-03-17 11:40:00,
2013-03-17 07:50:00,20.8,16.7,30.22,NW,325,2.0,3.0,84,0.00,,,0.00,Wunderground v.1.15,2013-03-17 11:50:00,
2013-03-17 07:55:00,21.1,17.0,30.22,NW,316,3.0,3.0,84,0.00,,,0.00,Wunderground v.1.15,2013-03-17 11:55:00,
2013-03-17 08:00:00,21.4,17.0,30.22,NNW,345,3.0,3.0,83,0.00,,,0.00,Wunderground v.1.15,2013-03-17 12:00:00,
2013-03-17 08:10:00,22.0,17.3,30.23,NNE,22,4.0,4.0,82,0.00,,,0.00,Wunderground v.1.15,2013-03-17 12:10:00,
2013-03-17 08:20:00,22.5,17.5,30.23,NNE,29,5.0,5.0,81,0.00,,,0.00,Wunderground v.1.15,2013-03-17 12:20:00,
2013-03-17 08:25:00,22.8,17.6,30.24,NNE,22,4.0,8.0,80,0.00,,,0.00,Wunderground v.1.15,2013-03-17 12:25:00,
2013-03-17 08:30:00,23.1,17.8,30.24,NNE,24,4.0,10.0,80,0.00,,,0.00,Wunderground v.1.15,2013-03-17 12:30:00,
2013-03-17 08:40:00,23.6,18.0,30.25,NNE,24,4.0,4.0,79,0.00,,,0.00,Wunderground v.1.15,2013-03-17 12:40:00,
2013-03-17 08:45:00,23.8,17.6,30.25,NNE,26,4.0,7.0,77,0.00,,,0.00,Wunderground v.1.15,2013-03-17 12:45:00,
2013-03-17 08:50:00,24.1,17.0,30.25,North,355,5.0,9.0,74,0.00,,,0.00,Wunderground v.1.15,2013-03-17 12:50:00,
2013-03-17 08:55:00,24.3,16.9,30.26,NNE,12,6.0,9.0,73,0.00,,,0.00,Wunderground v.1.15,2013-03-17 12:55:00,
2013-03-17 09:00:00,24.4,16.0,30.26,North,8,7.0,7.0,70,0.00,,,0.00,Wunderground v.1.15,2013-03-17 13:00:00,
2013-03-17 09:10:00,24.6,15.9,30.26,NNE,22,7.0,7.0,69,0.00,,,0.00,Wunderground v.1.15,2013-03-17 13:10:00,
2013-03-17 09:15:00,24.6,15.2,30.26,North,359,6.0,10.0,67,0.00,,,0.00,Wunderground v.1.15,2013-03-17 13:15:00,
2013-03-17 09:20:00,24.6,14.9,30.27,NE,37,6.0,6.0,66,0.00,,,0.00,Wunderground v.1.15,2013-03-17 13:20:00,
2013-03-17 09:30:00,24.5,14.1,30.28,NNE,20,8.0,8.0,64,0.00,,,0.00,Wunderground v.1.15,2013-03-17 13:30:00,
2013-03-17 09:40:00,24.4,13.6,30.28,ENE,77,7.0,7.0,63,0.00,,,0.00,Wunderground v.1.15,2013-03-17 13:40:00,
2013-03-17 09:45:00,24.5,13.7,30.29,NNE,22,6.0,7.0,63,0.00,,,0.00,Wunderground v.1.15,2013-03-17 13:45:00,
2013-03-17 09:50:00,24.4,13.2,30.29,NNE,29,7.0,7.0,62,0.00,,,0.00,Wunderground v.1.15,2013-03-17 13:50:00,
2013-03-17 09:55:00,24.6,13.4,30.29,NNW,348,8.0,11.0,62,0.00,,,0.00,Wunderground v.1.15,2013-03-17 13:55:00,
2013-03-17 10:05:00,24.6,13.1,30.30,NE,43,9.0,17.0,61,0.00,,,0.00,Wunderground v.1.15,2013-03-17 14:05:00,
2013-03-17 10:10:00,24.7,13.5,30.30,NE,44,8.0,8.0,62,0.00,,,0.00,Wunderground v.1.15,2013-03-17 14:10:00,
2013-03-17 10:15:00,24.8,13.6,30.30,ENE,62,6.0,9.0,62,0.00,,,0.00,Wunderground v.1.15,2013-03-17 14:15:00,
2013-03-17 10:20:00,25.0,13.4,30.30,NNE,28,6.0,9.0,61,0.00,,,0.00,Wunderground v.1.15,2013-03-17 14:20:00,
2013-03-17 10:25:00,25.1,13.5,30.30,NE,39,7.0,9.0,61,0.00,,,0.00,Wunderground v.1.15,2013-03-17 14:25:00,
2013-03-17 10:30:00,25.1,13.5,30.30,ENE,60,7.0,10.0,61,0.00,,,0.00,Wunderground v.1.15,2013-03-17 14:30:00,
2013-03-17 10:40:00,24.9,13.0,30.30,NE,41,8.0,8.0,60,0.00,,,0.00,Wunderground v.1.15,2013-03-17 14:40:00,
2013-03-17 10:45:00,25.0,13.1,30.30,NNE,32,7.0,12.0,60,0.00,,,0.00,Wunderground v.1.15,2013-03-17 14:45:00,
2013-03-17 10:50:00,25.1,13.5,30.30,NE,53,7.0,7.0,61,0.00,,,0.00,Wunderground v.1.15,2013-03-17 14:50:00,
2013-03-17 10:55:00,25.0,13.1,30.30,ENE,75,8.0,14.0,60,0.00,,,0.00,Wunderground v.1.15,2013-03-17 14:55:00,
2013-03-17 11:00:00,25.1,12.8,30.30,ENE,58,8.0,9.0,59,0.00,,,0.00,Wunderground v.1.15,2013-03-17 15:00:00,
2013-03-17 11:10:00,25.5,13.5,30.31,ENE,74,6.0,6.0,60,0.00,,,0.00,Wunderground v.1.15,2013-03-17 15:10:00,
2013-03-17 11:15:00,25.2,12.9,30.31,NNE,18,7.0,7.0,59,0.00,,,0.00,Wunderground v.1.15,2013-03-17 15:15:00,
2013-03-17 11:20:00,25.4,13.1,30.31,NNE,24,7.0,7.0,59,0.00,,,0.00,Wunderground v.1.15,2013-03-17 15:20:00,
2013-03-17 11:25:00,25.3,13.0,30.30,North,356,7.0,7.0,59,0.00,,,0.00,Wunderground v.1.15,2013-03-17 15:25:00,
2013-03-17 11:30:00,25.3,13.3,30.30,NE,43,7.0,8.0,60,0.00,,,0.00,Wunderground v.1.15,2013-03-17 15:30:00,
2013-03-17 11:40:00,25.6,13.6,30.31,NNE,30,7.0,7.0,60,0.00,,,0.00,Wunderground v.1.15,2013-03-17 15:40:00,
2013-03-17 11:45:00,26.0,14.4,30.31,NNE,30,6.0,7.0,61,0.00,,,0.00,Wunderground v.1.15,2013-03-17 15:45:00,
2013-03-17 11:50:00,26.1,14.1,30.31,NW,316,5.0,5.0,60,0.00,,,0.00,Wunderground v.1.15,2013-03-17 15:50:00,
2013-03-17 11:55:00,26.4,13.6,30.31,ENE,57,5.0,12.0,58,0.00,,,0.00,Wunderground v.1.15,2013-03-17 15:55:00,
2013-03-17 12:00:00,26.1,13.3,30.31,ENE,62,7.0,7.0,58,0.00,,,0.00,Wunderground v.1.15,2013-03-17 16:00:00,
2013-03-17 12:10:00,26.3,13.1,30.31,NE,44,6.0,6.0,57,0.00,,,0.00,Wunderground v.1.15,2013-03-17 16:10:00,
2013-03-17 12:15:00,26.3,12.3,30.31,NNE,22,7.0,7.0,55,0.00,,,0.00,Wunderground v.1.15,2013-03-17 16:15:00,
2013-03-17 12:20:00,26.1,12.1,30.31,ENE,75,6.0,6.0,55,0.00,,,0.00,Wunderground v.1.15,2013-03-17 16:20:00,
2013-03-17 12:25:00,26.8,13.6,30.31,NNE,32,5.0,6.0,57,0.00,,,0.00,Wunderground v.1.15,2013-03-17 16:25:00,